createdAt,value
2022-10-25T00:00:32.557Z,38.32
2022-10-25T00:02:04.619Z,38.60
2022-10-25T00:03:38.130Z,38.82
2022-10-25T00:05:12.441Z,38.65
2022-10-25T00:06:43.995Z,38.81
2022-10-25T00:08:19.116Z,38.92
2022-10-25T00:09:50.717Z,38.89
2022-10-25T00:11:23.506Z,39.04
2022-10-25T00:12:55.205Z,38.95
2022-10-25T00:14:27.065Z,38.95
2022-10-25T00:15:59.231Z,38.92
2022-10-25T00:17:30.990Z,38.97
2022-10-25T00:19:03.112Z,39.00
2022-10-25T00:20:36.166Z,39.16
2022-10-25T00:22:08.453Z,39.18
2022-10-25T00:23:40.631Z,39.54
2022-10-25T00:25:12.207Z,39.53
2022-10-25T00:26:44.475Z,39.70
2022-10-25T00:28:16.233Z,39.39
2022-10-25T00:29:47.897Z,39.65
2022-10-25T00:31:19.651Z,39.71
2022-10-25T00:32:53.187Z,39.82
2022-10-25T00:34:24.920Z,40.02
2022-10-25T00:35:56.578Z,39.79
2022-10-25T00:37:28.652Z,39.72
2022-10-25T00:39:00.299Z,39.86
2022-10-25T00:40:32.356Z,39.43
2022-10-25T00:42:04.178Z,39.74
2022-10-25T00:43:48.190Z,39.77
2022-10-25T00:45:24.129Z,39.57
2022-10-25T00:46:55.880Z,39.56
2022-10-25T00:48:27.581Z,39.88
2022-10-25T00:50:01.119Z,39.86
2022-10-25T00:51:34.111Z,39.91
2022-10-25T00:53:09.755Z,40.10
2022-10-25T00:54:43.214Z,39.75
2022-10-25T00:56:20.376Z,40.10
2022-10-25T00:57:54.011Z,40.02
2022-10-25T00:59:26.161Z,40.19
2022-10-25T01:00:57.963Z,40.19
2022-10-25T01:02:30.103Z,40.24
2022-10-25T01:04:02.788Z,40.54
2022-10-25T01:05:34.743Z,40.85
2022-10-25T01:07:06.310Z,40.71
2022-10-25T01:08:38.125Z,40.86
2022-10-25T01:10:10.223Z,40.45
2022-10-25T01:11:42.389Z,40.46
2022-10-25T01:13:14.281Z,40.42
2022-10-25T01:14:47.738Z,40.76
2022-10-25T01:16:34.490Z,40.46
2022-10-25T01:18:06.293Z,40.54
2022-10-25T01:19:41.338Z,41.08
2022-10-25T01:21:13.006Z,40.72
2022-10-25T01:22:53.887Z,41.35
2022-10-25T01:24:28.613Z,41.01
2022-10-25T01:26:15.538Z,41.51
2022-10-25T01:28:05.801Z,41.27
2022-10-25T01:29:44.388Z,40.86
2022-10-25T01:31:16.018Z,41.07
2022-10-25T01:32:50.951Z,41.07
2022-10-25T01:34:33.268Z,41.22
2022-10-25T01:36:07.468Z,41.14
2022-10-25T01:37:39.359Z,41.15
2022-10-25T01:39:29.682Z,41.04
2022-10-25T01:41:04.397Z,41.37
2022-10-25T01:42:38.562Z,41.22
2022-10-25T01:44:14.020Z,41.18
2022-10-25T01:46:08.209Z,41.55
2022-10-25T01:47:41.509Z,41.11
2022-10-25T01:49:14.853Z,41.43
2022-10-25T01:50:46.716Z,41.75
2022-10-25T01:52:22.346Z,41.37
2022-10-25T01:53:53.926Z,41.46
2022-10-25T01:55:27.534Z,41.63
2022-10-25T01:57:01.841Z,41.52
2022-10-25T01:58:33.428Z,41.63
2022-10-25T02:00:11.501Z,41.94
2022-10-25T02:01:55.584Z,42.15
2022-10-25T02:03:32.381Z,41.88
2022-10-25T02:05:03.885Z,42.08
2022-10-25T02:06:44.072Z,42.43
2022-10-25T02:08:18.715Z,42.42
2022-10-25T02:09:50.364Z,42.58
2022-10-25T02:11:25.668Z,42.78
2022-10-25T02:12:59.229Z,42.60
2022-10-25T02:14:40.324Z,42.73
2022-10-25T02:16:13.658Z,42.73
2022-10-25T02:17:49.937Z,42.95
2022-10-25T02:19:22.574Z,42.94
2022-10-25T02:20:54.578Z,42.96
2022-10-25T02:22:27.812Z,42.91
2022-10-25T02:24:01.016Z,43.03
2022-10-25T02:25:36.173Z,43.09
2022-10-25T02:27:07.676Z,42.86
2022-10-25T02:28:40.284Z,42.91
2022-10-25T02:30:13.373Z,43.00
2022-10-25T02:31:45.053Z,43.00
2022-10-25T02:33:16.615Z,42.95
2022-10-25T02:34:48.609Z,43.13
2022-10-25T02:36:23.381Z,43.29
2022-10-25T02:37:55.339Z,43.32
2022-10-25T02:39:30.562Z,43.19
2022-10-25T02:41:03.404Z,43.46
2022-10-25T02:42:35.078Z,43.49
2022-10-25T02:44:06.771Z,43.41
2022-10-25T02:45:38.305Z,43.83
2022-10-25T02:47:09.910Z,43.71
2022-10-25T02:48:41.900Z,43.59
2022-10-25T02:50:13.556Z,43.62
2022-10-25T02:51:45.205Z,43.34
2022-10-25T02:53:16.991Z,43.48
2022-10-25T02:54:48.637Z,43.38
2022-10-25T02:56:20.887Z,43.45
2022-10-25T02:57:52.420Z,43.61
2022-10-25T02:59:24.563Z,43.89
2022-10-25T03:00:56.293Z,43.89
2022-10-25T03:02:28.231Z,43.92
2022-10-25T03:04:00.137Z,43.97
2022-10-25T03:05:31.926Z,43.86
2022-10-25T03:07:03.559Z,43.86
2022-10-25T03:08:35.629Z,44.21
2022-10-25T03:10:08.216Z,44.20
2022-10-25T03:11:39.767Z,44.10
2022-10-25T03:13:11.256Z,44.02
2022-10-25T03:14:43.516Z,44.39
2022-10-25T03:16:15.119Z,44.17
2022-10-25T03:17:46.921Z,44.63
2022-10-25T03:19:18.764Z,44.55
2022-10-25T03:20:50.689Z,44.66
2022-10-25T03:22:22.249Z,44.40
2022-10-25T03:23:54.277Z,44.82
2022-10-25T03:25:25.983Z,44.58
2022-10-25T03:26:57.824Z,44.58
2022-10-25T03:28:29.806Z,44.37
2022-10-25T03:30:02.034Z,44.55
2022-10-25T03:31:33.912Z,44.54
2022-10-25T03:33:05.509Z,44.75
2022-10-25T03:34:37.111Z,44.89
2022-10-25T03:36:09.943Z,44.84
2022-10-25T03:37:41.581Z,44.89
2022-10-25T03:39:13.505Z,45.22
2022-10-25T03:40:45.040Z,44.78
2022-10-25T03:42:16.657Z,44.94
2022-10-25T03:43:48.157Z,45.27
2022-10-25T03:45:19.779Z,45.12
2022-10-25T03:46:51.371Z,45.00
2022-10-25T03:48:22.957Z,45.08
2022-10-25T03:49:54.680Z,45.00
2022-10-25T03:51:26.721Z,45.17
2022-10-25T03:52:58.780Z,45.16
2022-10-25T03:54:30.333Z,44.93
2022-10-25T03:56:02.029Z,44.99
2022-10-25T03:57:33.608Z,44.99
2022-10-25T03:59:05.185Z,45.05
2022-10-25T04:00:36.804Z,44.85
2022-10-25T04:02:08.688Z,44.90
2022-10-25T04:03:40.474Z,44.97
2022-10-25T04:05:12.114Z,44.83
2022-10-25T04:06:43.822Z,44.92
2022-10-25T04:08:15.513Z,45.25
2022-10-25T04:09:47.139Z,45.64
2022-10-25T04:11:18.777Z,45.69
2022-10-25T04:14:23.061Z,45.77
2022-10-25T04:15:54.622Z,46.51
2022-10-25T04:17:26.530Z,46.40
2022-10-25T04:18:59.274Z,46.32
2022-10-25T04:20:31.129Z,46.16
2022-10-25T04:22:03.474Z,45.94
2022-10-25T04:23:35.403Z,46.24
2022-10-25T04:25:07.203Z,46.30
2022-10-25T04:26:39.096Z,46.41
2022-10-25T04:28:11.363Z,46.15
2022-10-25T04:29:42.989Z,46.14
2022-10-25T04:31:14.534Z,46.31
2022-10-25T04:32:46.624Z,46.69
2022-10-25T04:34:18.609Z,46.46
2022-10-25T04:35:59.415Z,46.57
2022-10-25T04:37:30.993Z,46.60
2022-10-25T04:39:02.662Z,46.50
2022-10-25T04:40:34.319Z,46.54
2022-10-25T04:42:05.911Z,46.76
2022-10-25T04:43:37.588Z,46.64
2022-10-25T04:45:09.534Z,46.83
2022-10-25T04:46:45.077Z,46.70
2022-10-25T04:48:19.452Z,46.59
2022-10-25T04:49:51.098Z,46.63
2022-10-25T04:51:22.837Z,46.59
2022-10-25T04:52:54.382Z,46.68
2022-10-25T04:54:26.035Z,47.11
2022-10-25T04:55:58.273Z,46.89
2022-10-25T04:57:29.780Z,46.97
2022-10-25T04:59:01.850Z,46.60
2022-10-25T05:00:33.539Z,46.88
2022-10-25T05:02:05.894Z,46.51
2022-10-25T05:03:37.435Z,46.75
2022-10-25T05:05:09.260Z,47.11
2022-10-25T05:06:41.045Z,46.93
2022-10-25T05:08:13.078Z,47.27
2022-10-25T05:09:47.356Z,47.32
2022-10-25T05:11:20.136Z,46.90
2022-10-25T05:12:52.096Z,47.17
2022-10-25T05:14:24.238Z,47.35
2022-10-25T05:15:56.289Z,47.81
2022-10-25T05:17:28.548Z,47.73
2022-10-25T05:19:01.285Z,47.39
2022-10-25T05:20:32.815Z,47.83
2022-10-25T05:22:04.450Z,47.54
2022-10-25T05:23:36.071Z,47.83
2022-10-25T05:25:07.797Z,47.70
2022-10-25T05:26:39.395Z,47.85
2022-10-25T05:28:10.883Z,47.66
2022-10-25T05:29:42.485Z,47.76
2022-10-25T05:31:20.689Z,47.45
2022-10-25T05:32:52.648Z,47.56
2022-10-25T05:34:24.772Z,47.52
2022-10-25T05:35:56.526Z,47.68
2022-10-25T05:37:30.743Z,47.62
2022-10-25T05:39:02.400Z,47.80
2022-10-25T05:40:34.015Z,47.78
2022-10-25T05:42:06.673Z,47.99
2022-10-25T05:43:38.441Z,47.95
2022-10-25T05:45:10.144Z,47.92
2022-10-25T05:46:41.974Z,47.81
2022-10-25T05:48:13.646Z,47.88
2022-10-25T05:49:45.321Z,47.64
2022-10-25T05:51:39.336Z,47.91
2022-10-25T05:53:10.957Z,47.62
2022-10-25T05:54:42.528Z,47.53
2022-10-25T05:56:14.375Z,47.61
2022-10-25T05:57:50.548Z,47.52
2022-10-25T05:59:22.345Z,47.76
2022-10-25T06:00:54.006Z,47.83
2022-10-25T06:02:25.594Z,47.84
2022-10-25T06:03:57.265Z,47.61
2022-10-25T06:05:28.845Z,47.87
2022-10-25T06:07:00.466Z,47.56
2022-10-25T06:08:32.234Z,47.36
2022-10-25T06:10:07.133Z,47.50
2022-10-25T06:11:42.303Z,47.55
2022-10-25T06:13:14.915Z,47.33
2022-10-25T06:14:46.722Z,47.55
2022-10-25T06:16:18.951Z,47.11
2022-10-25T06:17:50.584Z,47.16
2022-10-25T06:19:22.683Z,47.13
2022-10-25T06:20:54.275Z,47.13
2022-10-25T06:22:26.031Z,47.56
2022-10-25T06:23:58.517Z,47.70
2022-10-25T06:25:30.241Z,47.58
2022-10-25T06:27:01.945Z,47.20
2022-10-25T06:28:33.587Z,47.55
2022-10-25T06:30:05.737Z,47.26
2022-10-25T06:31:37.422Z,47.51
2022-10-25T06:33:09.021Z,47.17
2022-10-25T06:34:40.622Z,47.51
2022-10-25T06:36:18.806Z,47.29
2022-10-25T06:37:50.405Z,47.24
2022-10-25T06:39:22.423Z,47.64
2022-10-25T06:41:00.586Z,47.35
2022-10-25T06:42:32.157Z,47.70
2022-10-25T06:44:06.499Z,47.50
2022-10-25T06:45:38.588Z,47.52
2022-10-25T06:47:17.384Z,47.55
2022-10-25T06:48:49.862Z,47.57
2022-10-25T06:50:21.664Z,47.47
2022-10-25T06:51:53.181Z,47.58
2022-10-25T06:53:24.769Z,47.20
2022-10-25T06:54:56.388Z,47.75
2022-10-25T06:56:28.275Z,47.38
2022-10-25T06:57:59.906Z,47.44
2022-10-25T06:59:31.506Z,47.76
2022-10-25T07:01:07.091Z,47.39
2022-10-25T07:02:38.702Z,47.73
2022-10-25T07:04:10.333Z,47.60
2022-10-25T07:05:42.286Z,47.46
2022-10-25T07:07:15.219Z,47.43
2022-10-25T07:08:47.201Z,47.63
2022-10-25T07:10:18.891Z,47.59
2022-10-25T07:11:50.416Z,47.49
2022-10-25T07:13:22.247Z,47.26
2022-10-25T07:14:54.557Z,47.33
2022-10-25T07:16:26.589Z,47.33
2022-10-25T07:17:58.199Z,47.17
2022-10-25T07:19:29.805Z,47.33
2022-10-25T07:21:05.340Z,47.10
2022-10-25T07:22:36.969Z,46.69
2022-10-25T07:24:10.836Z,46.73
2022-10-25T07:25:42.653Z,46.88
2022-10-25T07:27:14.464Z,47.12
2022-10-25T07:28:46.512Z,46.75
2022-10-25T07:30:18.750Z,46.50
2022-10-25T07:31:50.502Z,46.15
2022-10-25T07:33:22.138Z,46.18
2022-10-25T07:34:53.787Z,46.37
2022-10-25T07:36:25.566Z,46.01
2022-10-25T07:37:57.146Z,45.99
2022-10-25T07:39:28.915Z,45.85
2022-10-25T07:41:00.610Z,45.72
2022-10-25T07:42:32.145Z,45.45
2022-10-25T07:44:03.810Z,45.54
2022-10-25T07:45:35.713Z,45.44
2022-10-25T07:47:07.240Z,45.26
2022-10-25T07:48:38.753Z,45.45
2022-10-25T07:50:10.275Z,45.40
2022-10-25T07:51:41.926Z,45.08
2022-10-25T07:53:13.536Z,45.40
2022-10-25T07:54:45.295Z,45.03
2022-10-25T07:56:20.687Z,45.09
2022-10-25T07:57:59.536Z,44.86
2022-10-25T07:59:31.723Z,45.03
2022-10-25T08:01:04.268Z,44.51
2022-10-25T08:02:36.384Z,44.62
2022-10-25T08:04:08.361Z,44.55
2022-10-25T08:05:40.142Z,44.59
2022-10-25T08:07:11.939Z,44.48
2022-10-25T08:08:44.304Z,44.56
2022-10-25T08:10:16.032Z,44.31
2022-10-25T08:11:47.639Z,44.34
2022-10-25T08:13:19.488Z,44.09
2022-10-25T08:14:51.101Z,44.18
2022-10-25T08:16:22.894Z,44.19
2022-10-25T08:17:57.890Z,43.98
2022-10-25T08:19:29.779Z,43.83
2022-10-25T08:21:03.299Z,43.73
2022-10-25T08:22:35.564Z,43.55
2022-10-25T08:24:07.375Z,43.46
2022-10-25T08:25:39.214Z,43.23
2022-10-25T08:27:10.736Z,43.19
2022-10-25T08:28:42.479Z,43.00
2022-10-25T08:30:14.201Z,42.78
2022-10-25T08:31:46.053Z,42.42
2022-10-25T08:33:17.782Z,42.37
2022-10-25T08:34:49.466Z,42.47
2022-10-25T08:36:21.224Z,42.27
2022-10-25T08:37:52.791Z,42.06
2022-10-25T08:39:24.502Z,41.97
2022-10-25T08:41:31.453Z,42.07
2022-10-25T08:43:08.322Z,41.91
2022-10-25T08:44:54.692Z,41.91
2022-10-25T08:46:27.698Z,41.29
2022-10-25T08:47:59.352Z,41.00
2022-10-25T08:49:49.778Z,41.07
2022-10-25T08:51:21.464Z,41.06
2022-10-25T08:52:56.931Z,40.67
2022-10-25T08:54:33.040Z,40.68
2022-10-25T08:56:16.102Z,40.51
2022-10-25T08:57:48.938Z,40.24
2022-10-25T08:59:23.435Z,40.22
2022-10-25T09:00:55.312Z,39.89
2022-10-25T09:02:33.892Z,39.89
2022-10-25T09:04:05.802Z,39.80
2022-10-25T09:05:40.986Z,39.86
2022-10-25T09:07:21.645Z,39.63
2022-10-25T09:08:58.310Z,39.44
2022-10-25T09:10:32.989Z,39.36
2022-10-25T09:12:10.964Z,38.88
2022-10-25T09:13:42.615Z,39.08
2022-10-25T09:15:14.651Z,38.83
2022-10-25T09:16:54.919Z,38.51
2022-10-25T09:18:30.154Z,38.23
2022-10-25T09:20:04.715Z,38.04
2022-10-25T09:21:42.739Z,37.88
2022-10-25T09:23:26.897Z,37.80
2022-10-25T09:25:02.771Z,37.62
2022-10-25T09:26:46.525Z,37.59
2022-10-25T09:28:36.775Z,37.42
2022-10-25T09:30:09.238Z,37.42
2022-10-25T09:31:43.337Z,37.27
2022-10-25T09:34:53.523Z,36.68
2022-10-25T09:36:33.358Z,36.56
2022-10-25T09:38:11.369Z,36.33
2022-10-25T09:39:44.440Z,36.08
2022-10-25T09:41:18.813Z,35.99
2022-10-25T09:42:54.442Z,36.02
2022-10-25T09:44:37.947Z,35.72
2022-10-25T09:46:14.020Z,35.44
2022-10-25T09:48:20.698Z,35.35
2022-10-25T09:49:57.960Z,35.21
2022-10-25T09:51:33.934Z,34.87
2022-10-25T09:53:09.135Z,35.09
2022-10-25T09:54:51.084Z,34.77
2022-10-25T09:56:22.721Z,34.72
2022-10-25T09:57:54.569Z,34.53
2022-10-25T09:59:28.211Z,34.46
2022-10-25T10:01:04.813Z,34.35
2022-10-25T10:02:36.635Z,34.27
2022-10-25T10:04:26.492Z,34.12
2022-10-25T10:06:00.228Z,34.03
2022-10-25T10:07:36.120Z,34.07
2022-10-25T10:09:08.473Z,33.63
2022-10-25T10:10:40.709Z,33.50
2022-10-25T10:12:16.577Z,33.31
2022-10-25T10:13:49.727Z,33.06
2022-10-25T10:15:21.339Z,32.97
2022-10-25T10:16:54.250Z,33.03
2022-10-25T10:18:25.954Z,33.00
2022-10-25T10:20:14.651Z,32.65
2022-10-25T10:21:46.853Z,32.77
2022-10-25T10:23:18.528Z,32.41
2022-10-25T10:24:50.104Z,32.59
2022-10-25T10:26:21.694Z,32.48
2022-10-25T10:27:54.391Z,32.44
2022-10-25T10:29:29.314Z,32.46
2022-10-25T10:31:00.932Z,32.38
2022-10-25T10:32:33.820Z,32.11
2022-10-25T10:34:05.976Z,31.98
2022-10-25T10:35:37.524Z,31.73
2022-10-25T10:37:15.290Z,31.74
2022-10-25T10:38:47.485Z,32.00
2022-10-25T10:40:19.752Z,31.84
2022-10-25T10:42:03.513Z,31.50
2022-10-25T10:43:35.365Z,31.24
2022-10-25T10:45:10.103Z,31.51
2022-10-25T10:46:45.364Z,30.98
2022-10-25T10:48:21.102Z,31.05
2022-10-25T10:49:52.621Z,30.84
2022-10-25T10:51:43.410Z,30.73
2022-10-25T10:53:21.778Z,30.98
2022-10-25T10:54:53.402Z,30.56
2022-10-25T10:56:25.028Z,30.46
2022-10-25T10:57:57.129Z,30.57
2022-10-25T10:59:43.885Z,30.43
2022-10-25T11:01:18.149Z,30.29
2022-10-25T11:02:50.557Z,30.35
2022-10-25T11:04:25.321Z,30.11
2022-10-25T11:05:58.846Z,30.23
2022-10-25T11:07:31.962Z,30.11
2022-10-25T11:09:20.505Z,30.00
2022-10-25T11:10:52.039Z,29.93
2022-10-25T11:12:23.640Z,30.08
2022-10-25T11:13:56.031Z,29.86
2022-10-25T11:15:30.105Z,30.00
2022-10-25T11:17:13.841Z,29.85
2022-10-25T11:19:05.833Z,29.75
2022-10-25T11:20:45.079Z,29.66
2022-10-25T11:22:16.747Z,29.65
2022-10-25T11:23:51.450Z,29.17
2022-10-25T11:25:23.107Z,29.10
2022-10-25T11:27:13.810Z,29.01
2022-10-25T11:29:07.134Z,29.01
2022-10-25T11:30:41.804Z,28.69
2022-10-25T11:32:23.164Z,28.49
2022-10-25T11:34:00.828Z,28.31
2022-10-25T11:35:33.625Z,28.50
2022-10-25T11:37:08.284Z,28.38
2022-10-25T11:38:45.837Z,27.95
2022-10-25T11:40:18.945Z,28.26
2022-10-25T11:41:51.343Z,28.30
2022-10-25T11:43:26.062Z,28.16
2022-10-25T11:45:09.851Z,28.22
2022-10-25T11:46:48.082Z,27.93
2022-10-25T11:48:34.522Z,27.72
2022-10-25T11:50:19.799Z,27.82
2022-10-25T11:51:57.744Z,27.77
2022-10-25T11:53:39.695Z,27.41
2022-10-25T11:55:17.254Z,27.29
2022-10-25T11:56:52.514Z,27.33
2022-10-25T11:58:36.230Z,27.26
2022-10-25T12:00:34.173Z,27.34
2022-10-25T12:02:08.536Z,27.41
2022-10-25T12:03:46.421Z,27.48
2022-10-25T12:05:18.135Z,27.09
2022-10-25T12:06:59.214Z,27.07
2022-10-25T12:08:34.059Z,26.87
2022-10-25T12:10:15.344Z,26.65
2022-10-25T12:11:47.686Z,26.67
2022-10-25T12:13:31.941Z,26.55
2022-10-25T12:15:03.574Z,26.46
2022-10-25T12:16:36.043Z,26.43
2022-10-25T12:18:07.922Z,26.42
2022-10-25T12:19:43.772Z,26.26
2022-10-25T12:21:19.047Z,25.97
2022-10-25T12:22:51.303Z,25.87
2022-10-25T12:24:36.079Z,25.73
2022-10-25T12:26:10.824Z,25.59
2022-10-25T12:27:42.525Z,25.55
2022-10-25T12:29:15.054Z,25.52
2022-10-25T12:30:46.671Z,25.48
2022-10-25T12:32:22.051Z,25.48
2022-10-25T12:34:05.196Z,25.43
2022-10-25T12:35:40.483Z,25.38
2022-10-25T12:37:14.475Z,25.21
2022-10-25T12:38:46.173Z,25.44
2022-10-25T12:40:18.443Z,25.02
2022-10-25T12:41:51.756Z,25.11
2022-10-25T12:43:23.722Z,24.89
2022-10-25T12:45:06.293Z,24.92
2022-10-25T12:46:49.767Z,24.77
2022-10-25T12:48:24.303Z,24.88
2022-10-25T12:49:59.610Z,24.38
2022-10-25T12:51:34.108Z,24.79
2022-10-25T12:53:17.980Z,24.58
2022-10-25T12:54:55.586Z,24.31
2022-10-25T12:56:44.173Z,24.25
2022-10-25T12:58:15.916Z,24.15
2022-10-25T12:59:56.006Z,24.06
2022-10-25T13:01:36.890Z,24.11
2022-10-25T13:03:10.397Z,24.16
2022-10-25T13:04:51.301Z,24.09
2022-10-25T13:06:30.117Z,23.97
2022-10-25T13:08:03.126Z,23.84
2022-10-25T13:09:35.327Z,23.59
2022-10-25T13:11:07.319Z,23.82
2022-10-25T13:12:38.925Z,23.69
2022-10-25T13:14:29.551Z,23.80
2022-10-25T13:16:01.898Z,23.53
2022-10-25T13:17:39.340Z,23.40
2022-10-25T13:19:53.105Z,23.21
2022-10-25T13:21:37.899Z,23.11
2022-10-25T13:23:28.128Z,23.23
2022-10-25T13:25:00.263Z,23.20
2022-10-25T13:26:32.587Z,23.41
2022-10-25T13:28:16.177Z,23.06
2022-10-25T13:30:08.317Z,23.10
2022-10-25T13:31:46.959Z,23.07
2022-10-25T13:33:27.875Z,22.90
2022-10-25T13:34:59.450Z,23.05
2022-10-25T13:36:45.863Z,23.00
2022-10-25T13:38:21.180Z,22.68
2022-10-25T13:39:52.859Z,22.85
2022-10-25T13:41:24.462Z,22.54
2022-10-25T13:43:18.493Z,22.52
2022-10-25T13:44:53.429Z,22.75
2022-10-25T13:46:40.525Z,22.68
2022-10-25T13:48:15.064Z,22.57
2022-10-25T13:49:46.594Z,22.51
2022-10-25T13:51:18.239Z,22.55
2022-10-25T13:53:03.361Z,22.48
2022-10-25T13:54:48.290Z,22.42
2022-10-25T13:56:22.632Z,22.58
2022-10-25T13:57:57.612Z,22.47
2022-10-25T13:59:36.013Z,22.36
2022-10-25T14:01:17.657Z,22.42
2022-10-25T14:03:08.335Z,22.53
2022-10-25T14:04:40.077Z,22.72
2022-10-25T14:06:16.183Z,22.45
2022-10-25T14:07:51.222Z,22.48
2022-10-25T14:09:23.948Z,22.20
2022-10-25T14:10:55.553Z,22.30
2022-10-25T14:12:27.279Z,22.59
2022-10-25T14:14:27.824Z,22.34
2022-10-25T14:16:00.920Z,22.34
2022-10-25T14:17:33.282Z,22.36
2022-10-25T14:19:23.484Z,22.30
2022-10-25T14:21:02.929Z,22.40
2022-10-25T14:22:35.973Z,22.45
2022-10-25T14:24:07.715Z,22.34
2022-10-25T14:25:42.945Z,22.40
2022-10-25T14:27:31.148Z,22.26
2022-10-25T14:29:13.204Z,22.17
2022-10-25T14:30:45.143Z,22.34
2022-10-25T14:32:18.363Z,22.25
2022-10-25T14:33:50.007Z,22.28
2022-10-25T14:35:21.882Z,22.26
2022-10-25T14:36:54.489Z,22.44
2022-10-25T14:38:26.777Z,22.42
2022-10-25T14:39:58.511Z,22.30
2022-10-25T14:41:30.989Z,21.96
2022-10-25T14:43:20.842Z,22.40
2022-10-25T14:44:52.432Z,21.95
2022-10-25T14:46:24.905Z,22.31
2022-10-25T14:47:56.444Z,22.16
2022-10-25T14:49:28.145Z,22.22
2022-10-25T14:51:01.350Z,22.26
2022-10-25T14:52:32.917Z,22.40
2022-10-25T14:54:05.360Z,22.11
2022-10-25T14:55:37.014Z,22.46
2022-10-25T14:57:08.882Z,22.51
2022-10-25T14:58:41.296Z,22.49
2022-10-25T15:00:19.770Z,22.24
2022-10-25T15:01:55.396Z,22.28
2022-10-25T15:03:28.074Z,22.27
2022-10-25T15:05:00.374Z,22.58
2022-10-25T15:06:32.620Z,22.36
2022-10-25T15:08:04.360Z,22.49
2022-10-25T15:09:43.514Z,22.47
2022-10-25T15:11:16.515Z,22.89
2022-10-25T15:12:50.802Z,23.07
2022-10-25T15:14:22.618Z,22.88
2022-10-25T15:15:54.693Z,23.04
2022-10-25T15:17:27.599Z,22.78
2022-10-25T15:19:05.078Z,22.96
2022-10-25T15:20:36.628Z,23.17
2022-10-25T15:22:10.795Z,23.12
2022-10-25T15:23:42.952Z,23.38
2022-10-25T15:25:23.123Z,23.23
2022-10-25T15:26:56.046Z,23.37
2022-10-25T15:28:27.705Z,23.46
2022-10-25T15:29:59.368Z,23.67
2022-10-25T15:31:31.485Z,23.59
2022-10-25T15:33:03.176Z,23.91
2022-10-25T15:34:34.807Z,24.00
2022-10-25T15:36:06.537Z,23.91
2022-10-25T15:37:39.274Z,24.14
2022-10-25T15:39:21.228Z,24.38
2022-10-25T15:40:52.788Z,24.18
2022-10-25T15:42:24.936Z,24.36
2022-10-25T15:43:56.518Z,24.53
2022-10-25T15:45:28.147Z,24.52
2022-10-25T15:46:59.746Z,24.57
2022-10-25T15:48:31.486Z,24.57
2022-10-25T15:50:04.101Z,24.74
2022-10-25T15:51:36.706Z,24.76
2022-10-25T15:53:10.435Z,24.96
2022-10-25T15:54:44.095Z,24.74
2022-10-25T15:56:17.618Z,24.91
2022-10-25T15:57:49.505Z,24.75
2022-10-25T15:59:21.235Z,25.05
2022-10-25T16:00:54.476Z,25.31
2022-10-25T16:02:32.303Z,25.15
2022-10-25T16:04:04.105Z,25.34
2022-10-25T16:05:36.263Z,25.34
2022-10-25T16:07:10.161Z,25.70
2022-10-25T16:08:41.984Z,25.64
2022-10-25T16:10:13.725Z,25.59
2022-10-25T16:11:47.180Z,25.85
2022-10-25T16:13:24.483Z,25.85
2022-10-25T16:14:56.073Z,26.00
2022-10-25T16:16:40.039Z,25.89
2022-10-25T16:18:12.501Z,26.16
2022-10-25T16:19:44.888Z,26.12
2022-10-25T16:21:16.715Z,26.18
2022-10-25T16:22:48.825Z,26.09
2022-10-25T16:24:21.138Z,26.08
2022-10-25T16:25:53.282Z,26.16
2022-10-25T16:27:24.866Z,26.18
2022-10-25T16:28:56.556Z,26.31
2022-10-25T16:30:31.407Z,26.27
2022-10-25T16:32:04.328Z,26.35
2022-10-25T16:33:36.038Z,26.69
2022-10-25T16:35:07.946Z,26.60
2022-10-25T16:36:39.742Z,26.42
2022-10-25T16:38:11.489Z,26.35
2022-10-25T16:39:43.147Z,26.65
2022-10-25T16:41:41.395Z,26.49
2022-10-25T16:43:12.967Z,26.61
2022-10-25T16:44:44.937Z,26.42
2022-10-25T16:46:16.539Z,26.66
2022-10-25T16:47:48.560Z,26.52
2022-10-25T16:49:20.327Z,26.84
2022-10-25T16:50:52.021Z,26.56
2022-10-25T16:52:23.722Z,26.96
2022-10-25T16:53:55.611Z,27.07
2022-10-25T16:55:30.535Z,26.81
2022-10-25T16:57:02.114Z,27.05
2022-10-25T16:58:34.595Z,26.98
2022-10-25T17:00:06.557Z,27.19
2022-10-25T17:01:41.179Z,27.03
2022-10-25T17:03:15.335Z,27.39
2022-10-25T17:04:48.720Z,27.21
2022-10-25T17:08:12.193Z,27.43
2022-10-25T17:09:44.155Z,27.46
2022-10-25T17:11:16.114Z,27.12
2022-10-25T17:12:48.788Z,27.53
2022-10-25T17:14:20.563Z,27.64
2022-10-25T17:15:52.267Z,27.50
2022-10-25T17:19:00.585Z,27.60
2022-10-25T17:20:33.216Z,27.62
2022-10-25T17:22:04.990Z,27.73
2022-10-25T17:23:36.752Z,27.55
2022-10-25T17:25:08.701Z,27.36
2022-10-25T17:26:40.801Z,27.62
2022-10-25T17:28:12.568Z,27.64
2022-10-25T17:29:44.326Z,27.32
2022-10-25T17:31:16.179Z,27.25
2022-10-25T17:32:47.786Z,27.56
2022-10-25T17:34:19.510Z,27.51
2022-10-25T17:35:51.113Z,27.46
2022-10-25T17:37:22.692Z,27.58
2022-10-25T17:38:55.056Z,27.52
2022-10-25T17:40:26.603Z,27.59
2022-10-25T17:41:58.324Z,27.55
2022-10-25T17:43:29.943Z,27.48
2022-10-25T17:45:01.583Z,27.68
2022-10-25T17:46:33.282Z,27.93
2022-10-25T17:48:05.176Z,28.11
2022-10-25T17:49:37.297Z,28.25
2022-10-25T17:51:10.342Z,28.24
2022-10-25T17:52:42.475Z,28.25
2022-10-25T17:54:14.153Z,28.37
2022-10-25T17:55:46.306Z,28.37
2022-10-25T17:57:17.970Z,28.35
2022-10-25T17:58:49.635Z,28.22
2022-10-25T18:00:21.191Z,28.24
2022-10-25T18:01:53.418Z,28.11
2022-10-25T18:03:25.663Z,28.33
2022-10-25T18:05:21.385Z,28.39
2022-10-25T18:06:49.043Z,28.32
2022-10-25T18:08:20.747Z,28.66
2022-10-25T18:09:52.317Z,28.36
2022-10-25T18:11:24.812Z,28.44
2022-10-25T18:12:56.383Z,28.70
2022-10-25T18:14:28.302Z,28.70
2022-10-25T18:16:00.884Z,28.60
2022-10-25T18:17:32.725Z,28.80
2022-10-25T18:19:04.907Z,28.55
2022-10-25T18:20:40.679Z,28.74
2022-10-25T18:22:12.594Z,28.81
2022-10-25T18:23:44.150Z,28.88
2022-10-25T18:25:15.951Z,28.68
2022-10-25T18:26:47.574Z,28.88
2022-10-25T18:28:19.236Z,29.05
2022-10-25T18:29:51.004Z,29.19
2022-10-25T18:31:22.706Z,29.36
2022-10-25T18:32:54.556Z,29.29
2022-10-25T18:34:26.638Z,29.32
2022-10-25T18:35:58.917Z,29.45
2022-10-25T18:37:31.142Z,29.49
2022-10-25T18:39:02.903Z,29.58
2022-10-25T18:40:35.702Z,29.62
2022-10-25T18:42:07.642Z,29.53
2022-10-25T18:43:39.317Z,29.64
2022-10-25T18:45:11.101Z,29.71
2022-10-25T18:46:42.986Z,29.57
2022-10-25T18:48:14.726Z,29.80
2022-10-25T18:49:46.493Z,29.80
2022-10-25T18:51:18.153Z,29.80
2022-10-25T18:52:49.735Z,29.83
2022-10-25T18:54:21.382Z,29.87
2022-10-25T18:55:53.059Z,29.90
2022-10-25T18:57:25.005Z,30.03
2022-10-25T18:59:00.108Z,30.03
2022-10-25T19:00:31.952Z,30.10
2022-10-25T19:02:04.052Z,30.22
2022-10-25T19:03:35.901Z,30.28
2022-10-25T19:06:44.807Z,30.37
2022-10-25T19:08:16.729Z,30.36
2022-10-25T19:09:48.301Z,30.38
2022-10-25T19:11:20.607Z,30.51
2022-10-25T19:12:52.972Z,30.57
2022-10-25T19:14:24.731Z,30.71
2022-10-25T19:15:57.247Z,30.81
2022-10-25T19:17:28.954Z,30.86
2022-10-25T19:19:04.142Z,30.82
2022-10-25T19:20:37.726Z,30.82
2022-10-25T19:22:09.388Z,30.90
2022-10-25T19:23:44.925Z,30.87
2022-10-25T19:25:19.119Z,30.97
2022-10-25T19:26:53.471Z,31.07
2022-10-25T19:28:25.092Z,31.17
2022-10-25T19:29:58.019Z,31.14
2022-10-25T19:31:29.903Z,31.18
2022-10-25T19:33:01.515Z,31.35
2022-10-25T19:34:33.575Z,31.43
2022-10-25T19:36:06.092Z,31.51
2022-10-25T19:37:40.873Z,31.53
2022-10-25T19:39:12.443Z,31.61
2022-10-25T19:40:50.387Z,31.58
2022-10-25T19:42:22.345Z,31.57
2022-10-25T19:43:54.169Z,31.62
2022-10-25T19:45:26.126Z,31.55
2022-10-25T19:46:57.916Z,31.63
2022-10-25T19:48:30.006Z,31.59
2022-10-25T19:50:03.547Z,31.66
2022-10-25T19:51:35.337Z,31.72
2022-10-25T19:53:07.005Z,31.62
2022-10-25T19:54:39.000Z,31.49
2022-10-25T19:56:10.646Z,31.55
2022-10-25T19:57:42.537Z,31.88
2022-10-25T19:59:14.298Z,31.77
2022-10-25T20:00:46.274Z,31.77
2022-10-25T20:02:18.803Z,32.09
2022-10-25T20:03:51.512Z,32.05
2022-10-25T20:05:23.249Z,32.03
2022-10-25T20:06:55.430Z,32.31
2022-10-25T20:08:27.494Z,32.34
2022-10-25T20:09:59.068Z,32.49
2022-10-25T20:11:31.629Z,32.50
2022-10-25T20:13:04.828Z,32.47
2022-10-25T20:14:37.780Z,32.42
2022-10-25T20:16:09.489Z,32.38
2022-10-25T20:17:41.072Z,32.45
2022-10-25T20:19:13.179Z,32.61
2022-10-25T20:20:44.840Z,32.52